Time;durP1;ratioP1;P1;durP2;ratioP2;P2;SDS_P1;SDS_P2;PMS_P1;PMS_P2;Temp;Humidity;BMP_temperature;BMP_pressure;BME280_temperature;BME280_humidity;BME280_pressure;Samples;Min_cycle;Max_cycle;Signal;HPM_P1;HPM_P2
2021/07/18 00:00:12;;;;;;;17.53;12.80;;;;;;;20.51;65.85;101789.47;5060489;28;20178;-69
2021/07/18 00:02:37;;;;;;;8.83;6.13;;;;;;;20.25;66.28;101791.59;5060120;28;20193;-69
2021/07/18 00:05:04;;;;;;;8.70;7.33;;;;;;;20.38;66.05;101784.34;5060669;28;20786;-70
2021/07/18 00:07:29;;;;;;;9.50;5.93;;;;;;;20.29;66.17;101783.59;5060332;28;20561;-69
2021/07/18 00:09:55;;;;;;;12.13;8.30;;;;;;;20.25;66.47;101789.81;5060133;28;20427;-69
2021/07/18 00:12:20;;;;;;;10.80;5.70;;;;;;;20.26;66.56;101782.78;5060719;28;20173;-69
2021/07/18 00:14:45;;;;;;;6.63;5.70;;;;;;;20.26;66.46;101794.22;5060114;28;20201;-69
2021/07/18 00:17:11;;;;;;;9.03;5.10;;;;;;;20.07;67.17;101788.31;5059225;28;20174;-69
2021/07/18 00:19:36;;;;;;;8.27;5.07;;;;;;;20.14;66.89;101783.81;5060331;28;20172;-68
2021/07/18 00:22:02;;;;;;;10.23;5.50;;;;;;;19.91;67.85;101787.63;5059910;28;20185;-69
2021/07/18 00:24:27;;;;;;;8.47;5.70;;;;;;;20.15;67.21;101786.44;5059722;28;20225;-68
2021/07/18 00:26:53;;;;;;;7.43;5.23;;;;;;;20.07;67.25;101798.91;5060317;28;20189;-68
2021/07/18 00:29:18;;;;;;;8.40;5.53;;;;;;;20.10;67.07;101798.00;5059966;28;20189;-69
2021/07/18 00:31:43;;;;;;;7.27;5.17;;;;;;;20.24;66.74;101790.75;5059844;28;20177;-69
2021/07/18 00:34:08;;;;;;;6.30;5.00;;;;;;;20.26;66.55;101799.53;5060016;28;20601;-69
2021/07/18 00:36:34;;;;;;;5.73;5.10;;;;;;;19.97;67.35;101791.97;5059656;28;20185;-69
2021/07/18 00:39:00;;;;;;;9.03;5.60;;;;;;;20.03;67.33;101794.53;5059057;28;20189;-67
2021/07/18 00:41:25;;;;;;;9.87;5.47;;;;;;;20.01;67.58;101791.03;5060304;28;20174;-69
2021/07/18 00:43:50;;;;;;;9.77;6.43;;;;;;;20.05;67.41;101791.88;5059572;28;20188;-69
2021/07/18 00:46:15;;;;;;;7.53;5.73;;;;;;;20.12;67.16;101794.44;5059550;28;20216;-69
2021/07/18 00:48:41;;;;;;;7.30;5.80;;;;;;;20.02;67.55;101791.03;5059965;28;20184;-69
2021/07/18 00:51:06;;;;;;;9.83;5.00;;;;;;;20.00;67.44;101791.94;5059528;28;20520;-68
2021/07/18 00:53:32;;;;;;;8.97;5.40;;;;;;;20.16;67.02;101792.59;5059265;28;20204;-68
2021/07/18 00:55:57;;;;;;;6.90;5.47;;;;;;;20.12;67.14;101789.13;5059893;28;20161;-69
2021/07/18 00:58:28;;;;;;;7.17;5.33;;;;;;;19.63;68.86;101792.34;5059317;28;20180;-69
2021/07/18 01:00:53;;;;;;;7.40;4.90;;;;;;;19.94;68.09;101789.38;5059320;28;20193;-69
2021/07/18 01:03:19;;;;;;;7.33;5.17;;;;;;;19.96;68.01;101790.22;5059373;28;20840;-69
2021/07/18 01:05:44;;;;;;;6.50;5.03;;;;;;;19.91;68.44;101792.91;5059061;28;20247;-69
2021/07/18 01:08:10;;;;;;;9.03;5.10;;;;;;;19.92;67.84;101785.88;5058448;28;20452;-68
2021/07/18 01:10:36;;;;;;;6.50;5.10;;;;;;;19.88;68.17;101779.72;5059525;28;20391;-68
2021/07/18 01:13:01;;;;;;;7.57;5.03;;;;;;;19.94;68.30;101784.94;5058947;28;20441;-68
2021/07/18 01:15:27;;;;;;;9.33;5.00;;;;;;;20.03;67.97;101781.31;5058337;28;20256;-68
2021/07/18 01:17:52;;;;;;;6.60;5.17;;;;;;;19.95;68.23;101781.41;5059394;28;20181;-68
2021/07/18 01:20:18;;;;;;;6.23;4.90;;;;;;;19.84;68.64;101784.19;5059284;28;20210;-68
2021/07/18 01:22:44;;;;;;;7.07;5.23;;;;;;;19.94;68.38;101787.59;5058966;28;20448;-68
2021/07/18 01:25:11;;;;;;;8.30;4.90;;;;;;;19.87;68.65;101785.06;5058657;28;20313;-68
2021/07/18 01:27:37;;;;;;;7.70;5.03;;;;;;;20.00;68.14;101781.34;5058579;28;20424;-68
2021/07/18 01:30:07;;;;;;;5.90;5.30;;;;;;;19.83;68.90;101777.13;5058224;28;20427;-68
2021/07/18 01:32:33;;;;;;;7.43;4.73;;;;;;;19.76;69.27;101783.38;5058500;28;20416;-68
2021/07/18 01:34:58;;;;;;;7.90;5.60;;;;;;;19.83;69.13;101774.47;5058420;28;20423;-68
2021/07/18 01:37:23;;;;;;;6.73;4.97;;;;;;;19.76;69.32;101778.06;5058894;28;20203;-68
2021/07/18 01:39:48;;;;;;;8.13;4.77;;;;;;;19.71;69.64;101782.53;5058450;28;20526;-69
2021/07/18 01:42:15;;;;;;;9.13;5.07;;;;;;;19.66;69.64;101779.97;5058181;28;20188;-69
2021/07/18 01:44:42;;;;;;;6.23;4.90;;;;;;;19.88;69.09;101774.44;5057926;28;20166;-69
2021/07/18 01:47:07;;;;;;;5.83;4.70;;;;;;;19.70;69.46;101778.16;5058177;28;20456;-68
2021/07/18 01:49:33;;;;;;;6.10;4.80;;;;;;;19.55;70.20;101783.63;5058239;28;20431;-68
2021/07/18 01:51:58;;;;;;;6.30;5.00;;;;;;;19.58;69.91;101791.50;5057692;28;20169;-69
2021/07/18 01:54:23;;;;;;;7.20;5.63;;;;;;;19.67;69.78;101794.06;5058037;28;20169;-69
2021/07/18 01:56:49;;;;;;;6.43;4.80;;;;;;;19.68;70.08;101783.44;5058181;28;20180;-69
2021/07/18 01:59:15;;;;;;;8.20;5.20;;;;;;;19.55;70.22;101780.97;5058675;28;20546;-69
2021/07/18 02:01:41;;;;;;;8.37;5.63;;;;;;;19.70;69.94;101780.81;5058064;28;20364;-69
2021/07/18 02:04:06;;;;;;;6.60;4.93;;;;;;;19.57;70.54;101785.34;5057921;28;20757;-69
2021/07/18 02:06:32;;;;;;;6.63;5.33;;;;;;;19.66;70.26;101777.31;5058421;28;20610;-69
2021/07/18 02:08:59;;;;;;;10.23;4.97;;;;;;;19.39;71.04;101786.44;5058052;28;20259;-69
2021/07/18 02:11:25;;;;;;;9.20;4.70;;;;;;;19.63;70.43;101781.75;5057886;28;20169;-68
2021/07/18 02:13:52;;;;;;;8.73;6.43;;;;;;;19.58;70.42;101770.34;5058111;28;20487;-69
2021/07/18 02:16:18;;;;;;;8.50;4.80;;;;;;;19.53;70.68;101781.84;5057852;28;20169;-69
2021/07/18 02:18:44;;;;;;;7.83;6.23;;;;;;;19.53;70.70;101784.50;5057887;28;20470;-69
2021/07/18 02:21:09;;;;;;;8.80;5.30;;;;;;;19.73;70.06;101778.13;5058250;28;20169;-69
2021/07/18 02:23:35;;;;;;;16.00;12.00;;;;;;;19.68;70.33;101772.88;5057578;28;20612;-68
2021/07/18 02:26:00;;;;;;;7.97;4.97;;;;;;;19.51;70.67;101780.13;5057862;28;20217;-69
2021/07/18 02:28:25;;;;;;;7.80;5.60;;;;;;;19.44;70.92;101771.38;5058264;28;20465;-69
2021/07/18 02:30:51;;;;;;;6.10;5.50;;;;;;;19.65;70.39;101774.69;5057755;28;20181;-69
2021/07/18 02:33:17;;;;;;;9.40;5.57;;;;;;;19.53;70.54;101771.28;5057616;28;20435;-69
2021/07/18 02:35:42;;;;;;;8.20;5.07;;;;;;;19.49;70.89;101774.84;5058048;28;20370;-69
2021/07/18 02:38:07;;;;;;;8.37;5.23;;;;;;;19.50;71.04;101775.75;5057688;28;20562;-68
2021/07/18 02:40:33;;;;;;;7.77;6.30;;;;;;;19.48;70.62;101775.78;5057713;28;20196;-68
2021/07/18 02:42:58;;;;;;;7.00;6.00;;;;;;;19.64;69.94;101763.22;5058042;28;20173;-68
2021/07/18 02:45:24;;;;;;;9.27;5.03;;;;;;;19.76;70.08;101767.50;5056821;28;20205;-69
2021/07/18 02:47:50;;;;;;;6.93;5.27;;;;;;;19.63;70.38;101765.88;5057417;28;20173;-69
2021/07/18 02:50:20;;;;;;;8.23;6.10;;;;;;;19.51;70.89;101767.78;5057938;28;20458;-69
2021/07/18 02:52:46;;;;;;;7.83;5.43;;;;;;;19.31;71.76;101775.94;5057531;28;20599;-69
2021/07/18 02:55:13;;;;;;;9.27;5.40;;;;;;;19.37;71.32;101769.69;5057650;28;20510;-69
2021/07/18 02:57:38;;;;;;;7.93;5.50;;;;;;;19.47;71.03;101765.19;5057976;28;20165;-68
2021/07/18 03:00:08;;;;;;;7.00;5.00;;;;;;;19.68;70.28;101759.63;5057471;28;20420;-69
2021/07/18 03:02:33;;;;;;;6.90;5.40;;;;;;;19.40;71.36;101763.50;5058595;28;20189;-69
2021/07/18 03:04:59;;;;;;;6.83;5.20;;;;;;;19.60;70.46;101758.84;5061911;28;20507;-69
2021/07/18 03:07:24;;;;;;;7.20;5.00;;;;;;;19.39;71.30;101762.63;5061624;28;20288;-70
2021/07/18 03:09:49;;;;;;;5.90;5.30;;;;;;;19.58;70.78;101758.03;5061600;28;20177;-69
2021/07/18 03:12:15;;;;;;;6.83;5.60;;;;;;;19.67;70.23;101759.66;5061925;28;20219;-69
2021/07/18 03:14:40;;;;;;;9.23;5.40;;;;;;;19.67;70.44;101759.66;5061264;28;20189;-69
2021/07/18 03:17:05;;;;;;;6.43;5.30;;;;;;;19.52;70.95;101768.66;5061514;28;20181;-69
2021/07/18 03:19:30;;;;;;;9.73;5.57;;;;;;;19.67;70.61;101773.78;5061673;28;20410;-69
2021/07/18 03:21:56;;;;;;;8.77;5.40;;;;;;;19.41;71.55;101770.56;5061418;28;20178;-69
2021/07/18 03:24:21;;;;;;;10.80;5.73;;;;;;;19.49;71.15;101768.69;5061355;28;20480;-68
2021/07/18 03:26:46;;;;;;;8.80;5.33;;;;;;;19.39;71.74;101777.59;5061642;28;20193;-68
2021/07/18 03:29:12;;;;;;;9.40;5.53;;;;;;;19.73;70.60;101762.25;5061344;28;20235;-69
2021/07/18 03:31:37;;;;;;;8.13;5.93;;;;;;;19.62;70.94;101754.44;5061138;28;20173;-69
2021/07/18 03:34:02;;;;;;;7.53;5.77;;;;;;;19.55;71.32;101746.59;5061303;28;20169;-68
2021/07/18 03:36:27;;;;;;;7.30;5.30;;;;;;;19.71;70.56;101750.78;5061012;28;20185;-68
2021/07/18 03:38:53;;;;;;;9.17;6.00;;;;;;;19.81;70.32;101746.31;5060902;28;20169;-68
2021/07/18 03:41:20;;;;;;;7.40;5.80;;;;;;;19.40;71.29;101748.50;5061480;28;20170;-69
2021/07/18 03:43:46;;;;;;;6.00;5.23;;;;;;;19.76;70.70;101750.75;5060785;28;20170;-69
2021/07/18 03:46:12;;;;;;;7.23;6.17;;;;;;;20.04;69.52;101753.94;5060759;28;20438;-68
2021/07/18 03:48:38;;;;;;;8.60;5.93;;;;;;;19.77;70.35;101755.13;5061301;28;20465;-68
2021/07/18 03:51:03;;;;;;;7.23;6.20;;;;;;;19.80;70.29;101748.06;5060751;28;20204;-67
2021/07/18 03:53:28;;;;;;;8.60;6.17;;;;;;;19.97;69.74;101746.97;5060564;28;20485;-68
2021/07/18 03:55:54;;;;;;;8.97;6.00;;;;;;;19.75;70.48;101749.84;5060882;28;20161;-68
2021/07/18 03:58:19;;;;;;;9.80;6.60;;;;;;;19.85;69.95;101751.53;5059772;28;20177;-68
2021/07/18 04:00:44;;;;;;;6.40;5.80;;;;;;;20.56;67.71;101757.59;5060358;28;20173;-68
2021/07/18 04:03:10;;;;;;;6.33;5.30;;;;;;;20.81;66.44;101746.59;5061275;28;20594;-68
2021/07/18 04:05:35;;;;;;;7.20;5.50;;;;;;;20.95;66.20;101754.34;5060247;28;20193;-68
2021/07/18 04:08:00;;;;;;;6.47;5.00;;;;;;;21.47;64.50;101756.03;5060331;28;20209;-68
2021/07/18 04:10:25;;;;;;;6.13;5.40;;;;;;;20.83;66.02;101755.44;5060508;28;20174;-68
2021/07/18 04:12:51;;;;;;;8.23;5.10;;;;;;;20.42;67.82;101757.81;5059902;28;20529;-68
2021/07/18 04:15:16;;;;;;;6.97;5.80;;;;;;;20.58;67.79;101760.22;5059442;28;20177;-68
2021/07/18 04:17:41;;;;;;;7.07;5.90;;;;;;;20.32;68.33;101761.47;5060567;28;20296;-69
2021/07/18 04:20:07;;;;;;;8.70;6.33;;;;;;;20.45;67.98;101754.25;5058029;28;20514;-69
2021/07/18 04:22:32;;;;;;;7.27;5.97;;;;;;;20.35;68.60;101758.81;5059663;28;20181;-69
2021/07/18 04:24:58;;;;;;;11.00;6.10;;;;;;;19.93;69.25;101758.50;5058947;28;20315;-69
2021/07/18 04:27:23;;;;;;;7.27;5.90;;;;;;;20.17;69.25;101760.81;5059913;28;20209;-69
2021/07/18 04:29:48;;;;;;;10.67;6.17;;;;;;;20.40;68.26;101758.72;5059881;28;20252;-69
2021/07/18 04:32:14;;;;;;;6.90;6.10;;;;;;;19.89;70.06;101759.44;5059766;28;20181;-68
2021/07/18 04:34:42;;;;;;;7.80;6.10;;;;;;;20.48;67.93;101749.75;5059966;28;20189;-69
2021/07/18 04:37:09;;;;;;;10.50;6.03;;;;;;;20.31;68.53;101754.44;5059922;28;20169;-68
2021/07/18 04:39:34;;;;;;;7.23;5.87;;;;;;;20.86;66.28;101745.66;5059843;28;20423;-68
2021/07/18 04:42:00;;;;;;;7.17;5.87;;;;;;;22.19;62.02;101748.34;5059602;28;20472;-69
2021/07/18 04:44:25;;;;;;;5.90;5.40;;;;;;;23.40;58.42;101740.03;5059852;28;20447;-68
2021/07/18 04:46:54;;;;;;;5.70;5.20;;;;;;;23.74;56.28;101747.03;5059389;28;20209;-70
2021/07/18 04:49:20;;;;;;;7.47;5.90;;;;;;;24.26;54.57;101738.38;5059579;28;20173;-68
2021/07/18 04:51:45;;;;;;;6.40;4.90;;;;;;;24.64;53.57;101739.84;5059806;28;20483;-68
2021/07/18 04:54:11;;;;;;;7.00;4.63;;;;;;;24.39;53.95;101742.41;5058645;28;20181;-67
2021/07/18 04:56:36;;;;;;;5.23;4.73;;;;;;;24.48;53.24;101744.78;5059297;28;20185;-68
2021/07/18 04:59:01;;;;;;;5.90;4.20;;;;;;;25.59;51.29;101742.75;5059584;28;20400;-68
2021/07/18 05:01:27;;;;;;;5.50;4.20;;;;;;;25.53;50.69;101740.31;5059086;28;20190;-69
2021/07/18 05:03:52;;;;;;;4.40;3.87;;;;;;;25.62;50.45;101736.44;5059124;28;20174;-68
2021/07/18 05:06:17;;;;;;;4.50;3.80;;;;;;;25.65;50.11;101736.31;5059591;28;20200;-69
2021/07/18 05:08:43;;;;;;;6.10;4.03;;;;;;;25.27;51.02;101743.91;5059254;28;20460;-69
2021/07/18 05:11:08;;;;;;;4.10;3.70;;;;;;;26.17;48.95;101736.97;5058982;28;20209;-69
2021/07/18 05:13:33;;;;;;;8.83;3.90;;;;;;;25.76;50.09;101735.91;5059108;28;20178;-69
2021/07/18 05:15:59;;;;;;;6.80;4.10;;;;;;;26.18;48.20;101735.16;5058844;28;20174;-69
2021/07/18 05:18:24;;;;;;;4.33;3.53;;;;;;;26.29;48.68;101727.59;5059003;28;20188;-69
2021/07/18 05:20:50;;;;;;;4.10;3.70;;;;;;;25.85;49.89;101732.88;5059331;28;20170;-69
2021/07/18 05:23:15;;;;;;;4.20;3.60;;;;;;;25.48;50.66;101726.25;5058558;28;20196;-68
2021/07/18 05:25:40;;;;;;;4.10;3.37;;;;;;;24.77;52.64;101732.28;5058528;28;20209;-69
2021/07/18 05:28:06;;;;;;;6.00;3.93;;;;;;;25.65;50.24;101737.16;5059044;28;20256;-68
2021/07/18 05:30:31;;;;;;;4.10;3.73;;;;;;;25.54;51.11;101740.25;5058052;28;20173;-69
2021/07/18 05:32:57;;;;;;;4.80;3.80;;;;;;;26.34;48.92;101732.75;5058509;28;20165;-68
2021/07/18 05:35:22;;;;;;;5.27;3.60;;;;;;;26.84;47.13;101744.97;5059140;28;20398;-68
2021/07/18 05:37:48;;;;;;;5.33;3.90;;;;;;;27.07;46.88;101741.28;5058697;28;20170;-68
2021/07/18 05:40:13;;;;;;;6.87;4.07;;;;;;;28.06;44.79;101729.66;5058578;28;20181;-68
2021/07/18 05:42:39;;;;;;;7.00;3.97;;;;;;;27.13;46.56;101738.34;5058559;28;20180;-68
2021/07/18 05:45:06;;;;;;;5.37;3.60;;;;;;;27.02;46.53;101751.31;5058471;28;20178;-69
2021/07/18 05:47:34;;;;;;;5.10;3.70;;;;;;;28.58;43.13;101741.44;5058450;28;20178;-69
2021/07/18 05:49:59;;;;;;;5.33;3.80;;;;;;;28.12;44.51;101746.38;5058751;28;20698;-69
2021/07/18 05:52:26;;;;;;;5.23;3.70;;;;;;;27.98;44.21;101747.00;5058153;28;20420;-69
2021/07/18 05:54:51;;;;;;;4.13;3.70;;;;;;;28.46;42.48;101737.53;5058159;28;20414;-69
2021/07/18 05:57:17;;;;;;;8.60;3.87;;;;;;;28.15;43.63;101741.72;5058796;28;20411;-69
2021/07/18 05:59:42;;;;;;;6.90;4.20;;;;;;;29.04;42.07;101732.84;5058301;28;20174;-70
2021/07/18 06:02:07;;;;;;;4.90;3.83;;;;;;;30.17;39.19;101730.25;5058177;28;20181;-69
2021/07/18 06:04:32;;;;;;;6.83;3.47;;;;;;;29.27;40.79;101742.41;5058527;28;20192;-70
2021/07/18 06:06:58;;;;;;;5.20;3.30;;;;;;;28.73;41.95;101734.44;5058032;28;20571;-70
2021/07/18 06:09:23;;;;;;;5.17;3.90;;;;;;;29.05;40.83;101748.00;5058139;28;20184;-69
2021/07/18 06:11:48;;;;;;;5.13;3.73;;;;;;;29.69;39.95;101745.53;5058319;28;20273;-69
2021/07/18 06:14:14;;;;;;;4.40;3.53;;;;;;;28.93;41.16;101745.94;5057789;28;20173;-70
2021/07/18 06:16:39;;;;;;;5.30;3.53;;;;;;;28.82;41.08;101744.72;5057839;28;20170;-69
2021/07/18 06:19:04;;;;;;;4.03;3.50;;;;;;;30.71;37.74;101745.13;5058273;28;20215;-70
2021/07/18 06:21:29;;;;;;;5.13;3.30;;;;;;;30.17;38.31;101746.41;5057863;28;20177;-70
2021/07/18 06:23:55;;;;;;;4.60;3.70;;;;;;;29.36;39.98;101747.28;5057601;28;20217;-70
2021/07/18 06:26:20;;;;;;;5.30;3.53;;;;;;;29.45;40.03;101751.28;5058075;28;20203;-69
2021/07/18 06:28:45;;;;;;;4.57;3.60;;;;;;;31.63;36.20;101743.16;5057701;28;20235;-70
2021/07/18 06:31:11;;;;;;;5.60;3.80;;;;;;;31.27;36.49;101747.16;5051275;28;20190;-69
2021/07/18 06:33:37;;;;;;;4.37;3.40;;;;;;;29.79;38.75;101760.16;5045388;28;20178;-69
2021/07/18 06:36:03;;;;;;;6.07;3.83;;;;;;;29.36;39.22;101743.72;5052978;28;20186;-69
2021/07/18 06:38:28;;;;;;;5.57;3.50;;;;;;;29.33;40.07;101752.78;5056383;28;20431;-70
2021/07/18 06:40:53;;;;;;;5.43;3.47;;;;;;;29.54;39.12;101752.59;5038180;28;20166;-70
2021/07/18 06:43:19;;;;;;;5.07;3.30;;;;;;;29.28;40.06;101759.38;5037484;28;20226;-70
2021/07/18 06:45:44;;;;;;;5.00;3.33;;;;;;;30.31;38.19;101750.13;5037528;28;20205;-69
2021/07/18 06:48:09;;;;;;;6.20;3.90;;;;;;;31.70;35.42;101750.75;5047411;28;20181;-70
2021/07/18 06:50:35;;;;;;;6.60;4.30;;;;;;;31.21;36.22;101761.91;5057382;28;20169;-69
2021/07/18 06:53:00;;;;;;;5.30;4.00;;;;;;;30.72;37.23;101763.00;5057273;28;20488;-70
2021/07/18 06:55:25;;;;;;;5.57;4.63;;;;;;;30.96;36.63;101765.19;5057823;28;20220;-70
2021/07/18 06:57:52;;;;;;;5.53;3.73;;;;;;;30.41;37.44;101760.25;5056446;28;20192;-71
2021/07/18 07:00:19;;;;;;;4.50;3.20;;;;;;;30.12;37.95;101758.38;5057317;28;20178;-71
2021/07/18 07:02:45;;;;;;;4.93;3.63;;;;;;;30.55;36.84;101758.63;5057764;28;20829;-69
2021/07/18 07:05:11;;;;;;;4.70;3.53;;;;;;;29.85;38.41;101762.56;5047215;28;20432;-69
2021/07/18 07:07:37;;;;;;;5.30;3.43;;;;;;;30.08;38.43;101752.34;5037275;28;20220;-70
2021/07/18 07:10:04;;;;;;;4.50;3.60;;;;;;;30.28;37.40;101747.63;5037708;28;20687;-70
2021/07/18 07:12:29;;;;;;;4.83;3.57;;;;;;;30.44;36.77;101747.59;5037224;28;20507;-70
2021/07/18 07:14:54;;;;;;;5.47;3.87;;;;;;;30.85;36.00;101750.56;5037410;28;20467;-69
2021/07/18 07:17:20;;;;;;;5.03;3.90;;;;;;;31.05;35.94;101751.19;5037741;28;20170;-69
2021/07/18 07:19:45;;;;;;;5.00;3.53;;;;;;;31.25;35.37;101760.75;5036588;28;20174;-70
2021/07/18 07:22:11;;;;;;;3.90;3.27;;;;;;;31.27;35.10;101758.84;5037324;28;20170;-69
2021/07/18 07:24:36;;;;;;;7.30;3.70;;;;;;;31.26;35.34;101761.59;5036838;28;20592;-70
2021/07/18 07:27:01;;;;;;;4.73;3.17;;;;;;;31.88;33.71;101762.19;5037122;28;20627;-70
2021/07/18 07:29:27;;;;;;;3.90;3.47;;;;;;;31.45;34.69;101774.81;5051448;28;20189;-70
2021/07/18 07:31:52;;;;;;;4.00;3.50;;;;;;;32.58;32.82;101753.13;5056605;28;20255;-70
2021/07/18 07:34:17;;;;;;;5.73;4.20;;;;;;;32.09;33.88;101764.44;5057113;28;20288;-70
2021/07/18 07:36:42;;;;;;;4.33;3.50;;;;;;;31.10;35.45;101759.00;5057498;28;20245;-70
2021/07/18 07:39:08;;;;;;;3.40;3.00;;;;;;;31.43;34.53;101753.31;5056956;28;20181;-70
2021/07/18 07:41:33;;;;;;;4.70;3.30;;;;;;;31.49;34.95;101754.78;5057044;28;20169;-68
2021/07/18 07:43:59;;;;;;;3.63;3.20;;;;;;;31.58;33.97;101749.69;5057350;28;20193;-69
2021/07/18 07:46:26;;;;;;;4.57;3.03;;;;;;;32.49;32.50;101748.34;5056920;28;20213;-69
2021/07/18 07:48:51;;;;;;;4.20;3.20;;;;;;;31.52;34.41;101758.13;5057203;28;20679;-70
2021/07/18 07:51:17;;;;;;;3.90;3.07;;;;;;;33.21;31.69;101755.16;5061070;28;20411;-67
2021/07/18 07:53:42;;;;;;;3.90;3.33;;;;;;;33.54;30.31;101751.03;5060354;28;20174;-68
2021/07/18 07:56:07;;;;;;;4.00;3.37;;;;;;;32.73;31.89;101751.22;5060519;28;20185;-69
2021/07/18 07:58:33;;;;;;;4.10;2.80;;;;;;;33.52;30.38;101744.91;5061230;28;20558;-69
2021/07/18 08:00:59;;;;;;;4.80;3.37;;;;;;;32.79;31.50;101749.09;5060404;28;20570;-69
2021/07/18 08:03:25;;;;;;;5.50;3.00;;;;;;;32.20;32.30;101747.59;5060186;28;20424;-69
2021/07/18 08:05:51;;;;;;;5.77;3.53;;;;;;;33.38;30.52;101745.88;5060620;28;20237;-68
2021/07/18 08:08:16;;;;;;;5.07;3.20;;;;;;;32.50;32.33;101746.50;5060173;28;20264;-69
2021/07/18 08:10:41;;;;;;;3.80;2.80;;;;;;;32.35;33.25;101737.59;5060046;28;20177;-68
2021/07/18 08:13:07;;;;;;;3.33;3.03;;;;;;;32.48;32.80;101746.59;5060329;28;20173;-68
2021/07/18 08:15:32;;;;;;;4.17;3.50;;;;;;;31.99;33.19;101750.69;5060072;28;20191;-69
2021/07/18 08:17:58;;;;;;;3.43;3.10;;;;;;;32.65;31.89;101748.16;5060063;28;20174;-68
2021/07/18 08:20:25;;;;;;;3.70;2.80;;;;;;;33.08;31.05;101744.34;5060380;28;20531;-69
2021/07/18 08:22:52;;;;;;;3.97;3.10;;;;;;;33.02;31.14;101750.19;5059838;28;20182;-69
2021/07/18 08:25:19;;;;;;;3.70;2.90;;;;;;;32.90;31.37;101755.44;5059821;28;20886;-70
2021/07/18 08:27:45;;;;;;;3.20;2.90;;;;;;;34.39;29.37;101756.53;5060395;28;20416;-70
2021/07/18 08:30:11;;;;;;;4.40;3.00;;;;;;;32.51;32.57;101756.31;5059169;28;20498;-70
2021/07/18 08:32:37;;;;;;;7.43;3.10;;;;;;;33.67;30.46;101756.44;5059699;28;20437;-70
2021/07/18 08:35:03;;;;;;;4.87;3.43;;;;;;;34.79;28.56;101762.59;5060122;28;20503;-69
2021/07/18 08:37:28;;;;;;;3.17;2.87;;;;;;;34.65;28.86;101763.66;5059706;28;20180;-69
2021/07/18 08:39:53;;;;;;;4.30;3.20;;;;;;;33.73;29.81;101758.69;5059666;28;20420;-69
2021/07/18 08:42:19;;;;;;;3.40;3.10;;;;;;;32.44;32.42;101763.97;5059998;28;20223;-70
2021/07/18 08:44:44;;;;;;;4.97;3.37;;;;;;;32.08;33.07;101763.59;5059541;28;20215;-70
2021/07/18 08:47:10;;;;;;;5.50;3.23;;;;;;;33.20;30.99;101759.69;5059629;28;20205;-68
2021/07/18 08:49:39;;;;;;;5.17;3.30;;;;;;;33.36;30.96;101751.38;5059826;28;20173;-69
2021/07/18 08:52:05;;;;;;;3.33;3.00;;;;;;;33.38;31.09;101749.47;5059465;28;20687;-68
2021/07/18 08:54:32;;;;;;;3.33;3.03;;;;;;;31.19;35.04;101759.28;5059223;28;20422;-69
2021/07/18 08:57:00;;;;;;;5.80;3.73;;;;;;;30.37;37.04;101760.53;5059405;28;20166;-69
2021/07/18 08:59:25;;;;;;;5.70;3.33;;;;;;;29.18;40.21;101762.50;5059179;28;20424;-67
2021/07/18 09:01:51;;;;;;;5.00;3.70;;;;;;;29.53;39.33;101757.09;5058913;28;20673;-67
2021/07/18 09:04:16;;;;;;;7.30;3.63;;;;;;;30.90;36.50;101750.25;5059524;28;20173;-67
2021/07/18 09:06:47;;;;;;;3.87;3.10;;;;;;;33.36;32.56;101742.44;5059214;28;20475;-67
2021/07/18 09:09:17;;;;;;;6.00;3.60;;;;;;;31.97;34.63;101747.22;5058431;28;20471;-69
2021/07/18 09:11:44;;;;;;;3.77;3.23;;;;;;;32.64;33.51;101734.75;5059074;28;20416;-68
2021/07/18 09:14:12;;;;;;;4.73;3.23;;;;;;;31.79;34.70;101740.34;5058167;28;20416;-68
2021/07/18 09:16:40;;;;;;;3.77;3.40;;;;;;;34.01;31.18;101743.16;5059487;28;20499;-68
2021/07/18 09:19:25;;;;;;;5.63;3.50;;;;;;;32.42;33.29;101741.59;5058982;28;20537;-72
2021/07/18 09:21:59;;;;;;;4.90;3.50;;;;;;;30.89;36.58;101746.72;5058998;28;20423;-71
2021/07/18 09:24:26;;;;;;;5.20;3.87;;;;;;;30.71;36.67;101745.13;5058473;28;20470;-69
2021/07/18 09:27:07;;;;;;;5.63;3.97;;;;;;;29.97;38.63;101738.63;5058665;28;20546;-68
2021/07/18 09:29:37;;;;;;;4.60;3.90;;;;;;;30.18;38.22;101742.75;5058601;28;20424;-68
2021/07/18 09:32:27;;;;;;;8.73;3.60;;;;;;;31.72;35.84;101739.88;5058726;28;20669;-69
2021/07/18 09:34:58;;;;;;;7.43;3.87;;;;;;;32.28;34.31;101729.03;5055609;28;20464;-69
2021/07/18 09:37:28;;;;;;;6.20;3.60;;;;;;;32.52;33.98;101737.31;5058481;28;20412;-68
2021/07/18 09:40:02;;;;;;;3.60;3.30;;;;;;;32.17;34.13;101735.16;5058277;28;20469;-69
2021/07/18 09:42:45;;;;;;;3.83;3.13;;;;;;;30.10;37.06;101745.03;5057340;28;20419;-68
2021/07/18 09:45:19;;;;;;;3.57;3.20;;;;;;;29.62;38.40;101744.09;5058308;28;20680;-68
2021/07/18 09:47:54;;;;;;;4.93;3.70;;;;;;;30.61;36.72;101750.19;5058451;28;20428;-67
2021/07/18 09:50:21;;;;;;;5.17;3.50;;;;;;;31.66;34.73;101741.16;5058121;28;20679;-69
2021/07/18 09:52:48;;;;;;;3.33;3.03;;;;;;;31.95;33.86;101740.19;5057516;28;20702;-69
2021/07/18 09:55:21;;;;;;;4.43;3.43;;;;;;;30.65;36.39;101754.44;5058311;28;20451;-69
2021/07/18 09:57:51;;;;;;;4.67;3.83;;;;;;;30.74;36.37;101742.25;5058389;28;20448;-69
2021/07/18 10:00:18;;;;;;;5.10;3.80;;;;;;;31.24;35.96;101740.16;5058380;28;20693;-69
2021/07/18 10:02:45;;;;;;;3.50;3.20;;;;;;;31.37;35.30;101734.88;5058081;28;20439;-69
2021/07/18 10:05:28;;;;;;;6.97;3.23;;;;;;;30.02;36.92;101745.47;5058585;28;20408;-68
2021/07/18 10:08:06;;;;;;;3.83;3.53;;;;;;;29.63;37.92;101735.09;5058089;28;20489;-68
2021/07/18 10:10:33;;;;;;;7.57;3.50;;;;;;;30.11;37.73;101736.03;5058053;28;20464;-68
2021/07/18 10:12:58;;;;;;;4.47;3.20;;;;;;;30.55;36.56;101735.28;5057140;28;20416;-69
2021/07/18 10:15:23;;;;;;;4.70;3.10;;;;;;;32.49;33.42;101724.03;5057151;28;20426;-68
2021/07/18 10:17:49;;;;;;;3.77;2.97;;;;;;;32.11;33.23;101716.66;5058240;28;20292;-68
2021/07/18 10:20:14;;;;;;;4.50;3.40;;;;;;;31.82;33.66;101721.28;5057031;28;20169;-68
2021/07/18 10:22:41;;;;;;;5.93;3.47;;;;;;;33.66;30.77;101712.28;5057472;28;20552;-68
2021/07/18 10:25:07;;;;;;;3.60;3.07;;;;;;;33.08;31.71;101718.22;5056843;28;20250;-68
2021/07/18 10:27:34;;;;;;;3.20;2.90;;;;;;;33.88;30.37;101721.56;5056811;28;20562;-68
2021/07/18 10:30:00;;;;;;;5.57;3.30;;;;;;;32.49;32.32;101715.94;5057057;28;20539;-68
2021/07/18 10:32:25;;;;;;;6.83;3.00;;;;;;;32.72;32.57;101716.25;5056729;28;20485;-68
2021/07/18 10:34:52;;;;;;;3.37;3.07;;;;;;;32.48;32.51;101711.50;5056957;28;20553;-69
2021/07/18 10:37:17;;;;;;;3.20;2.90;;;;;;;33.19;31.24;101716.56;5057325;28;20157;-68
2021/07/18 10:39:43;;;;;;;5.67;3.10;;;;;;;30.97;34.80;101718.44;5057607;28;20431;-67
2021/07/18 10:42:32;;;;;;;8.43;3.10;;;;;;;31.36;34.35;101714.28;5057692;28;20169;-68
2021/07/18 10:45:14;;;;;;;4.20;3.00;;;;;;;30.46;35.60;101718.78;5057384;28;20189;-68
2021/07/18 10:48:03;;;;;;;5.27;3.00;;;;;;;30.49;35.03;101716.81;5057662;28;20473;-68
2021/07/18 10:50:43;;;;;;;3.13;2.83;;;;;;;31.15;34.42;101709.28;5057406;28;20442;-68
2021/07/18 10:53:16;;;;;;;3.93;2.97;;;;;;;32.53;32.83;101703.97;5057323;28;20417;-68
2021/07/18 10:55:41;;;;;;;5.37;3.07;;;;;;;31.62;34.41;101703.69;5057500;28;20427;-68
2021/07/18 10:58:06;;;;;;;5.47;3.10;;;;;;;31.34;35.17;101706.28;5057500;28;20793;-68
2021/07/18 11:00:32;;;;;;;4.17;3.30;;;;;;;31.20;36.09;101704.47;5057988;28;20268;-68
2021/07/18 11:03:06;;;;;;;3.40;2.83;;;;;;;31.09;34.98;101706.09;5056649;28;20174;-68
2021/07/18 11:06:22;;;;;;;4.53;3.47;;;;;;;31.00;35.09;101704.78;5057317;28;20256;-69
2021/07/18 11:09:10;;;;;;;3.83;3.00;;;;;;;30.19;36.65;101708.69;5053702;28;20420;-69
2021/07/18 11:11:43;;;;;;;3.27;2.97;;;;;;;28.97;39.00;101701.88;5057588;28;20817;-68
2021/07/18 11:14:36;;;;;;;6.60;3.57;;;;;;;28.98;39.19;101700.94;5057287;28;20428;-68
2021/07/18 11:17:06;;;;;;;9.23;3.40;;;;;;;29.21;38.52;101697.91;5057347;28;20469;-68
2021/07/18 11:19:35;;;;;;;4.90;3.27;;;;;;;30.73;36.46;101695.63;5056507;28;20887;-68
2021/07/18 11:22:18;;;;;;;3.27;2.97;;;;;;;31.56;34.65;101688.75;5057321;28;20428;-69